Time;durP1;ratioP1;P1;durP2;ratioP2;P2;SDS_P1;SDS_P2;PMS_P1;PMS_P2;Temp;Humidity;BMP_temperature;BMP_pressure;BME280_temperature;BME280_humidity;BME280_pressure;Samples;Min_cycle;Max_cycle;Signal;HPM_P1;HPM_P2
2024/04/13 00:00:22;;;;;;;1999.90;999.90;;;18.20;99.90;;;;;;5281644;26;20054;-78
2024/04/13 00:02:48;;;;;;;1999.90;999.90;;;18.20;99.90;;;;;;5309871;27;20030;-78
2024/04/13 00:05:14;;;;;;;1999.90;999.90;;;18.10;99.90;;;;;;5311525;26;20038;-79
2024/04/13 00:07:40;;;;;;;1999.90;999.90;;;18.10;99.90;;;;;;5310805;26;20014;-78
2024/04/13 00:10:07;;;;;;;1999.90;999.90;;;18.10;99.90;;;;;;5312000;27;20025;-78
2024/04/13 00:12:33;;;;;;;1999.90;999.90;;;18.10;99.90;;;;;;5311189;26;20030;-78
2024/04/13 00:14:59;;;;;;;1999.90;999.90;;;18.00;99.90;;;;;;5311869;27;20045;-78
2024/04/13 00:17:25;;;;;;;1999.90;999.90;;;18.00;99.90;;;;;;5311047;26;20037;-78
2024/04/13 00:19:51;;;;;;;1999.90;999.90;;;18.00;99.90;;;;;;5310144;27;20030;-78
2024/04/13 00:22:18;;;;;;;1999.90;999.90;;;18.00;99.90;;;;;;5311069;26;20041;-78
2024/04/13 00:24:47;;;;;;;1999.90;999.90;;;18.00;99.90;;;;;;5311651;27;20025;-77
2024/04/13 00:27:13;;;;;;;1999.90;999.90;;;17.90;99.90;;;;;;5310593;26;20046;-78
2024/04/13 00:29:39;;;;;;;1999.90;999.90;;;17.90;99.90;;;;;;5312670;26;20252;-78
2024/04/13 00:32:05;;;;;;;1999.90;999.90;;;17.80;99.90;;;;;;5310325;26;20034;-77
2024/04/13 00:34:34;;;;;;;1999.90;999.90;;;17.80;99.90;;;;;;5311683;26;20034;-78
2024/04/13 00:37:04;;;;;;;1999.90;999.90;;;17.70;99.90;;;;;;5310769;26;20042;-78
2024/04/13 00:39:30;;;;;;;1999.90;999.90;;;17.80;99.90;;;;;;5311239;26;20025;-78
2024/04/13 00:41:57;;;;;;;1999.90;999.90;;;17.80;99.90;;;;;;5310445;26;20384;-78
2024/04/13 00:44:23;;;;;;;1999.90;999.90;;;17.80;99.90;;;;;;5312507;26;20145;-79
2024/04/13 00:46:49;;;;;;;1999.90;999.90;;;17.80;99.90;;;;;;5327390;26;20045;-78
2024/04/13 00:49:19;;;;;;;1999.90;999.90;;;17.80;99.90;;;;;;5344170;26;20028;-78
2024/04/13 00:51:50;;;;;;;1999.90;999.90;;;17.60;99.90;;;;;;5345766;26;20041;-78
2024/04/13 00:54:17;;;;;;;1999.90;999.90;;;17.70;99.90;;;;;;5345624;26;20040;-79
2024/04/13 00:56:44;;;;;;;1999.90;999.90;;;17.60;99.90;;;;;;5314563;26;20033;-72
2024/04/13 00:59:10;;;;;;;1999.90;999.90;;;17.60;99.90;;;;;;5343723;26;20028;-72
2024/04/13 01:01:36;;;;;;;1999.90;999.90;;;17.30;99.90;;;;;;5344531;26;20050;-72
2024/04/13 01:04:02;;;;;;;1999.90;999.90;;;17.00;99.90;;;;;;5344275;26;20489;-72
2024/04/13 01:06:29;;;;;;;1999.90;999.90;;;16.90;99.90;;;;;;5315263;26;20038;-72
2024/04/13 01:08:56;;;;;;;1999.90;999.90;;;17.00;99.90;;;;;;5345867;26;20028;-72
2024/04/13 01:11:22;;;;;;;1999.90;999.90;;;17.10;99.90;;;;;;5327921;26;20368;-71
2024/04/13 01:13:48;;;;;;;1999.90;999.90;;;17.10;99.90;;;;;;5308830;27;20022;-72
2024/04/13 01:16:14;;;;;;;1999.90;999.90;;;17.20;99.90;;;;;;5308304;26;20034;-72
2024/04/13 01:18:41;;;;;;;1999.90;999.90;;;17.20;99.90;;;;;;5311595;26;20017;-71
2024/04/13 01:21:09;;;;;;;1999.90;999.90;;;17.20;99.90;;;;;;5309239;26;20490;-72
2024/04/13 01:23:38;;;;;;;1999.90;999.90;;;17.20;99.90;;;;;;5311302;26;20031;-72
2024/04/13 01:26:04;;;;;;;1999.90;999.90;;;17.20;99.90;;;;;;5280716;27;20038;-72
2024/04/13 01:28:32;;;;;;;1999.90;999.90;;;17.20;99.90;;;;;;5281138;27;20380;-72
2024/04/13 01:30:58;;;;;;;1999.90;999.90;;;17.10;99.90;;;;;;5310703;26;20046;-72
2024/04/13 01:33:24;;;;;;;1999.90;999.90;;;17.10;99.90;;;;;;5309370;27;20474;-72
2024/04/13 01:35:51;;;;;;;1999.90;999.90;;;17.10;99.90;;;;;;5313586;26;20033;-72
2024/04/13 01:38:17;;;;;;;1999.90;999.90;;;17.20;99.90;;;;;;5345285;26;20028;-72
2024/04/13 01:40:43;;;;;;;1999.90;999.90;;;17.10;99.90;;;;;;5336268;26;20042;-72
2024/04/13 01:43:10;;;;;;;1999.90;999.90;;;17.10;99.90;;;;;;5311362;26;20030;-72
2024/04/13 01:45:36;;;;;;;1999.90;999.90;;;17.10;99.90;;;;;;5310298;26;20475;-72
2024/04/13 01:48:02;;;;;;;1999.90;999.90;;;17.00;99.90;;;;;;5310709;27;20037;-72
2024/04/13 01:50:28;;;;;;;1999.90;999.90;;;17.10;99.90;;;;;;5310396;26;20046;-72
2024/04/13 01:52:54;;;;;;;1999.90;999.90;;;17.10;99.90;;;;;;5308971;27;20034;-72
2024/04/13 01:55:21;;;;;;;1999.90;999.90;;;17.10;99.90;;;;;;5309980;26;20025;-71
2024/04/13 01:57:48;;;;;;;1999.90;999.90;;;17.00;99.90;;;;;;5310830;26;20029;-78
2024/04/13 02:00:18;;;;;;;1999.90;999.90;;;17.00;99.90;;;;;;5308218;26;20030;-78
2024/04/13 02:02:44;;;;;;;1999.90;999.90;;;16.80;99.90;;;;;;5309968;26;20545;-78
2024/04/13 02:05:10;;;;;;;1999.90;999.90;;;16.70;99.90;;;;;;5331546;26;20038;-78
2024/04/13 02:07:37;;;;;;;1999.90;999.90;;;16.70;99.90;;;;;;5319510;26;20041;-78
2024/04/13 02:10:03;;;;;;;1999.90;999.90;;;16.70;99.90;;;;;;5339163;26;20497;-78
2024/04/13 02:12:29;;;;;;;1999.90;999.90;;;16.70;99.90;;;;;;5306662;26;20029;-78
2024/04/13 02:14:55;;;;;;;1999.90;999.90;;;16.70;99.90;;;;;;5319199;26;20037;-78
2024/04/13 02:17:21;;;;;;;1999.90;999.90;;;16.70;99.90;;;;;;5310435;26;20378;-78
2024/04/13 02:19:48;;;;;;;1999.90;999.90;;;16.70;99.90;;;;;;5308688;27;20029;-78
2024/04/13 02:22:15;;;;;;;1999.90;999.90;;;16.70;99.90;;;;;;5307849;26;20037;-78
2024/04/13 02:24:43;;;;;;;1999.90;999.90;;;16.70;99.90;;;;;;5336396;26;20032;-78
2024/04/13 02:27:10;;;;;;;1999.90;999.90;;;16.70;99.90;;;;;;5317361;26;20045;-78
2024/04/13 02:29:38;;;;;;;1999.90;999.90;;;16.70;99.90;;;;;;5311866;26;20029;-78
2024/04/13 02:32:06;;;;;;;1999.90;999.90;;;16.70;99.90;;;;;;5311746;26;20033;-78
2024/04/13 02:34:33;;;;;;;1999.90;999.90;;;16.60;99.90;;;;;;5310343;27;20025;-78
2024/04/13 02:36:59;;;;;;;1999.90;999.90;;;16.60;99.90;;;;;;5336808;26;20064;-78
2024/04/13 02:39:26;;;;;;;1999.90;999.90;;;16.60;99.90;;;;;;5347904;26;20025;-78
2024/04/13 02:41:52;;;;;;;1999.90;999.90;;;16.60;99.90;;;;;;5347630;26;20033;-78
2024/04/13 02:44:18;;;;;;;1999.90;999.90;;;16.60;99.90;;;;;;5347576;26;20029;-78
2024/04/13 02:46:44;;;;;;;1999.90;999.90;;;16.50;99.90;;;;;;5346298;26;20037;-78
2024/04/13 02:49:10;;;;;;;1999.90;999.90;;;16.50;99.90;;;;;;5348111;26;20033;-78
2024/04/13 02:51:36;;;;;;;1999.90;999.90;;;16.40;99.90;;;;;;5346533;26;20033;-78
2024/04/13 02:54:03;;;;;;;1999.90;999.90;;;16.40;99.90;;;;;;5347337;26;20111;-78
2024/04/13 02:56:29;;;;;;;1999.90;999.90;;;16.40;99.90;;;;;;5328656;26;20486;-78
2024/04/13 02:58:55;;;;;;;1999.90;999.90;;;16.40;99.90;;;;;;5313891;26;20643;-78
2024/04/13 03:01:21;;;;;;;1999.90;999.90;;;16.30;99.90;;;;;;5311756;26;20051;-71
2024/04/13 03:03:48;;;;;;;1999.90;999.90;;;16.30;99.90;;;;;;5313383;26;20026;-72
2024/04/13 03:06:14;;;;;;;1999.90;999.90;;;16.10;99.90;;;;;;5312071;26;20046;-72
2024/04/13 03:08:40;;;;;;;1999.90;999.90;;;16.20;99.90;;;;;;5313565;26;20038;-71
2024/04/13 03:11:11;;;;;;;1999.90;999.90;;;16.20;99.90;;;;;;5310905;26;20030;-71
2024/04/13 03:13:37;;;;;;;1999.90;999.90;;;16.20;99.90;;;;;;5313147;26;20029;-71
2024/04/13 03:16:05;;;;;;;1999.90;999.90;;;16.20;99.90;;;;;;5312205;26;20046;-71
2024/04/13 03:18:34;;;;;;;1999.90;999.90;;;16.20;99.90;;;;;;5312992;27;20037;-72
2024/04/13 03:21:00;;;;;;;1999.90;999.90;;;16.20;99.90;;;;;;5312327;26;20034;-72
2024/04/13 03:23:28;;;;;;;1999.90;999.90;;;16.20;99.90;;;;;;5312433;27;20025;-72
2024/04/13 03:25:54;;;;;;;1999.90;999.90;;;16.20;99.90;;;;;;5312517;26;20025;-72
2024/04/13 03:28:30;;;;;;;1999.90;999.90;;;16.10;99.90;;;;;;5313013;26;20034;-71
2024/04/13 03:30:56;;;;;;;1999.90;999.90;;;16.10;99.90;;;;;;5311932;26;20053;-72
2024/04/13 03:33:23;;;;;;;1999.90;999.90;;;16.10;99.90;;;;;;5313211;26;20381;-72
2024/04/13 03:35:49;;;;;;;1999.90;999.90;;;16.10;99.90;;;;;;5319559;26;20060;-72
2024/04/13 03:38:16;;;;;;;1999.90;999.90;;;16.00;99.90;;;;;;5345743;26;20030;-72
2024/04/13 03:40:44;;;;;;;1999.90;999.90;;;16.00;99.90;;;;;;5338718;26;20647;-71
2024/04/13 03:43:11;;;;;;;1999.90;999.90;;;16.00;99.90;;;;;;5313108;26;20034;-71
2024/04/13 03:45:37;;;;;;;1999.90;999.90;;;15.90;99.90;;;;;;5309293;26;20482;-71
2024/04/13 03:48:04;;;;;;;1999.90;999.90;;;15.90;99.90;;;;;;5345711;26;20032;-71
2024/04/13 03:50:30;;;;;;;1999.90;999.90;;;16.00;99.90;;;;;;5345878;26;20045;-72
2024/04/13 03:52:57;;;;;;;1999.90;999.90;;;16.00;99.90;;;;;;5346937;26;20040;-72
2024/04/13 03:55:23;;;;;;;1999.90;999.90;;;16.00;99.90;;;;;;5343707;26;20482;-71
2024/04/13 03:57:49;;;;;;;1999.90;999.90;;;15.90;99.90;;;;;;5312601;27;20021;-72
2024/04/13 04:00:16;;;;;;;1999.90;999.90;;;15.90;99.90;;;;;;5309800;26;20061;-71
2024/04/13 04:02:42;;;;;;;1999.90;999.90;;;15.90;99.90;;;;;;5312554;26;20037;-78
2024/04/13 04:05:08;;;;;;;1999.90;999.90;;;15.80;99.90;;;;;;5311093;26;20336;-78
2024/04/13 04:07:34;;;;;;;1999.90;999.90;;;15.70;99.90;;;;;;5281934;27;20021;-79
2024/04/13 04:10:01;;;;;;;1999.90;999.90;;;15.80;99.90;;;;;;5313059;26;20025;-78
2024/04/13 04:12:27;;;;;;;1999.90;999.90;;;15.70;99.90;;;;;;5311372;26;20522;-78
2024/04/13 04:14:53;;;;;;;1999.90;999.90;;;15.80;99.90;;;;;;5312028;27;20030;-78
2024/04/13 04:17:19;;;;;;;1999.90;999.90;;;15.80;99.90;;;;;;5312024;26;20038;-78
2024/04/13 04:19:45;;;;;;;1999.90;999.90;;;15.80;99.90;;;;;;5312468;26;20033;-78
2024/04/13 04:22:11;;;;;;;1999.90;999.90;;;15.70;99.90;;;;;;5311173;26;20034;-78
2024/04/13 04:24:38;;;;;;;554.15;300.95;;;15.60;99.90;;;;;;5311142;26;20034;-78
2024/04/13 04:27:05;;;;;;;568.65;315.27;;;15.50;99.90;;;;;;5312526;26;20025;-78
2024/04/13 04:29:32;;;;;;;111.10;104.68;;;15.40;99.90;;;;;;5312883;26;20021;-78
2024/04/13 04:31:58;;;;;;;78.63;74.75;;;15.50;99.90;;;;;;5311832;26;20046;-78
2024/04/13 04:34:24;;;;;;;63.28;60.13;;;15.50;99.90;;;;;;5311670;26;20034;-78
2024/04/13 04:36:54;;;;;;;121.95;115.72;;;15.40;99.90;;;;;;5334723;26;20215;-77
2024/04/13 04:39:20;;;;;;;141.02;133.45;;;15.40;99.90;;;;;;5346142;26;20369;-77
2024/04/13 04:41:47;;;;;;;78.60;74.07;;;15.30;99.90;;;;;;5321785;26;20033;-79
2024/04/13 04:44:13;;;;;;;120.68;114.28;;;15.20;99.90;;;;;;5312599;26;20494;-78
2024/04/13 04:46:39;;;;;;;60.33;57.33;;;15.10;99.90;;;;;;5325347;26;20048;-78
2024/04/13 04:49:05;;;;;;;44.78;42.55;;;15.00;99.90;;;;;;5343798;26;20404;-78
2024/04/13 04:51:32;;;;;;;53.45;50.80;;;14.80;99.90;;;;;;5345958;26;20478;-78
2024/04/13 04:53:58;;;;;;;122.63;116.45;;;14.90;99.90;;;;;;5345763;26;20028;-78
2024/04/13 04:56:26;;;;;;;61.05;58.00;;;14.90;99.90;;;;;;5325895;26;20037;-79
2024/04/13 04:58:52;;;;;;;31.63;30.10;;;15.00;99.90;;;;;;5311295;26;20034;-78
2024/04/13 05:01:18;;;;;;;43.97;41.83;;;15.00;99.90;;;;;;5310888;26;20033;-78
2024/04/13 05:03:45;;;;;;;73.32;69.65;;;15.10;99.90;;;;;;5311831;26;20029;-78
2024/04/13 05:06:11;;;;;;;125.97;119.65;;;14.90;99.90;;;;;;5310987;26;20033;-78
2024/04/13 05:08:37;;;;;;;70.30;66.82;;;14.90;99.90;;;;;;5311167;27;20034;-78
2024/04/13 05:11:04;;;;;;;65.05;61.88;;;15.00;99.90;;;;;;5310835;26;20043;-78
2024/04/13 05:13:30;;;;;;;41.72;39.67;;;15.10;99.90;;;;;;5312341;26;20026;-78
2024/04/13 05:15:56;;;;;;;43.33;41.17;;;15.10;99.90;;;;;;5307828;26;20042;-72
2024/04/13 05:18:23;;;;;;;32.92;31.35;;;15.10;99.90;;;;;;5309570;26;20033;-71
2024/04/13 05:20:49;;;;;;;46.40;44.13;;;15.00;99.90;;;;;;5311434;26;20034;-72
2024/04/13 05:23:16;;;;;;;90.18;85.70;;;15.00;99.90;;;;;;5311034;27;20021;-72
2024/04/13 05:25:42;;;;;;;78.78;74.97;;;15.00;99.90;;;;;;5310681;26;20471;-73
2024/04/13 05:28:09;;;;;;;53.92;51.25;;;15.00;99.90;;;;;;5312711;26;20034;-72
2024/04/13 05:30:38;;;;;;;54.63;51.95;;;15.00;99.90;;;;;;5310819;26;20046;-72
2024/04/13 05:33:04;;;;;;;34.10;32.50;;;15.00;99.90;;;;;;5310459;27;20381;-72
2024/04/13 05:35:30;;;;;;;70.78;67.22;;;15.00;99.90;;;;;;5314440;26;20042;-72
2024/04/13 05:37:56;;;;;;;120.40;114.35;;;15.00;99.90;;;;;;5345603;26;20025;-71
2024/04/13 05:40:25;;;;;;;55.30;52.58;;;15.00;99.90;;;;;;5341790;26;20044;-71
2024/04/13 05:42:51;;;;;;;77.60;73.82;;;14.90;99.90;;;;;;5311139;26;20033;-72
2024/04/13 05:45:17;;;;;;;53.47;50.83;;;15.00;99.90;;;;;;5309782;26;20479;-71
2024/04/13 05:47:43;;;;;;;52.40;49.67;;;15.10;99.90;;;;;;5341135;26;20037;-72
2024/04/13 05:50:10;;;;;;;50.50;48.03;;;15.10;99.90;;;;;;5345268;26;20362;-71
2024/04/13 05:52:37;;;;;;;73.53;69.93;;;15.00;99.90;;;;;;5311379;26;20033;-71
2024/04/13 05:55:04;;;;;;;66.55;63.35;;;14.90;99.90;;;;;;5309021;27;20053;-72
2024/04/13 05:57:30;;;;;;;151.02;142.93;;;14.60;99.90;;;;;;5310891;26;20041;-71
2024/04/13 05:59:56;;;;;;;33.85;32.22;;;14.40;99.90;;;;;;5310734;27;20039;-72
2024/04/13 06:02:26;;;;;;;39.78;37.92;;;14.20;99.90;;;;;;5312283;26;20127;-72
2024/04/13 06:04:55;;;;;;;46.13;43.95;;;14.20;99.90;;;;;;5314195;26;20025;-71
2024/04/13 06:07:23;;;;;;;45.08;42.92;;;14.50;99.90;;;;;;5313879;26;20034;-71
2024/04/13 06:09:49;;;;;;;31.30;29.83;;;14.70;99.90;;;;;;5314405;26;20057;-71
2024/04/13 06:12:15;;;;;;;29.40;28.00;;;14.90;99.90;;;;;;5313670;26;20030;-71
2024/04/13 06:14:41;;;;;;;33.47;31.92;;;15.10;99.90;;;;;;5313704;26;20034;-70
2024/04/13 06:17:08;;;;;;;46.83;44.63;;;15.10;99.90;;;;;;5312814;26;20041;-72
2024/04/13 06:19:34;;;;;;;57.53;54.78;;;15.10;99.90;;;;;;5314182;26;20030;-71
2024/04/13 06:22:00;;;;;;;77.90;74.18;;;15.30;99.90;;;;;;5313173;26;20029;-71
2024/04/13 06:24:26;;;;;;;109.38;104.05;;;15.30;99.90;;;;;;5314414;26;20030;-71
2024/04/13 06:26:52;;;;;;;77.82;74.10;;;15.20;99.90;;;;;;5313124;26;20485;-72
2024/04/13 06:29:19;;;;;;;72.82;69.35;;;15.30;99.90;;;;;;5313288;26;20489;-77
2024/04/13 06:31:45;;;;;;;70.28;66.97;;;15.40;99.90;;;;;;5310543;26;20030;-77
2024/04/13 06:34:12;;;;;;;52.63;50.15;;;15.50;99.90;;;;;;5313257;27;20482;-77
2024/04/13 06:36:38;;;;;;;76.28;72.65;;;15.40;99.90;;;;;;5333305;26;20033;-78
2024/04/13 06:39:04;;;;;;;58.53;55.72;;;15.50;99.90;;;;;;5347889;26;20025;-78
2024/04/13 06:41:31;;;;;;;64.75;61.70;;;15.60;99.90;;;;;;5328011;26;20033;-78
2024/04/13 06:43:59;;;;;;;64.82;61.75;;;15.80;99.90;;;;;;5312657;26;20363;-78
2024/04/13 06:46:25;;;;;;;66.60;63.25;;;15.90;99.90;;;;;;5321278;26;20029;-78
2024/04/13 06:48:51;;;;;;;150.20;142.93;;;15.90;99.90;;;;;;5348116;26;20068;-78
2024/04/13 06:51:17;;;;;;;110.65;104.55;;;16.10;99.90;;;;;;5347021;26;20029;-78
2024/04/13 06:53:44;;;;;;;151.40;144.00;;;16.20;99.90;;;;;;5347410;26;20025;-78
2024/04/13 06:56:10;;;;;;;151.82;144.40;;;16.20;99.90;;;;;;5331018;26;20029;-78
2024/04/13 06:58:36;;;;;;;160.40;152.60;;;16.40;99.90;;;;;;5312663;27;20033;-78
2024/04/13 07:01:02;;;;;;;75.40;71.80;;;16.40;99.90;;;;;;5311985;26;20389;-78
2024/04/13 07:03:29;;;;;;;37.63;35.65;;;16.60;99.90;;;;;;5312531;27;20025;-77
2024/04/13 07:05:56;;;;;;;44.08;42.00;;;16.70;99.90;;;;;;5310915;26;20030;-78
2024/04/13 07:08:23;;;;;;;100.07;95.30;;;16.80;99.90;;;;;;5313037;27;20021;-78
2024/04/13 07:10:50;;;;;;;44.67;42.53;;;17.00;99.90;;;;;;5312511;26;20033;-78
2024/04/13 07:13:16;;;;;;;72.78;69.25;;;17.10;99.90;;;;;;5311062;27;20029;-78
2024/04/13 07:15:42;;;;;;;74.80;71.22;;;17.20;99.90;;;;;;5312101;26;20041;-79
2024/04/13 07:18:08;;;;;;;76.93;72.80;;;17.30;99.90;;;;;;5312702;27;20027;-78
2024/04/13 07:20:35;;;;;;;95.78;91.07;;;17.30;99.90;;;;;;5312562;26;20026;-79
2024/04/13 07:23:01;;;;;;;127.97;120.75;;;17.50;99.90;;;;;;5313511;26;20094;-78
2024/04/13 07:25:28;;;;;;;118.10;112.18;;;17.70;99.90;;;;;;5312054;26;20025;-78
2024/04/13 07:27:54;;;;;;;179.52;170.40;;;17.80;99.90;;;;;;5312537;26;20345;-79
2024/04/13 07:30:20;;;;;;;69.70;66.22;;;17.90;99.90;;;;;;5311826;26;20025;-78
2024/04/13 07:32:46;;;;;;;51.03;48.35;;;18.00;99.90;;;;;;5313274;26;20503;-78
2024/04/13 07:35:13;;;;;;;80.28;76.38;;;18.20;99.90;;;;;;5313139;26;20030;-78
2024/04/13 07:37:39;;;;;;;92.03;87.45;;;18.40;99.90;;;;;;5347144;26;20041;-78
2024/04/13 07:40:05;;;;;;;108.43;103.13;;;18.60;99.90;;;;;;5346821;26;20025;-78
2024/04/13 07:42:32;;;;;;;193.82;184.30;;;18.80;99.90;;;;;;5345517;26;20500;-78
2024/04/13 07:44:58;;;;;;;120.60;114.70;;;19.10;99.90;;;;;;5347372;26;20029;-79
2024/04/13 07:47:24;;;;;;;88.13;83.90;;;19.20;99.90;;;;;;5339621;26;20033;-78
2024/04/13 07:49:51;;;;;;;105.07;100.03;;;19.10;99.90;;;;;;5344711;26;20021;-78
2024/04/13 07:52:18;;;;;;;62.35;59.33;;;19.20;99.90;;;;;;5346475;26;20384;-79
2024/04/13 07:54:44;;;;;;;54.28;51.63;;;19.40;99.90;;;;;;5346585;26;20025;-78
2024/04/13 07:57:10;;;;;;;63.95;60.88;;;19.70;99.90;;;;;;5315107;26;20029;-79
2024/04/13 07:59:36;;;;;;;65.38;62.28;;;19.90;99.90;;;;;;5313235;26;20026;-79
2024/04/13 08:02:03;;;;;;;94.25;89.65;;;20.00;99.90;;;;;;5312137;26;20041;-78
2024/04/13 08:04:29;;;;;;;76.55;72.80;;;20.10;99.90;;;;;;5312137;27;20022;-78
2024/04/13 08:06:55;;;;;;;130.45;124.10;;;20.40;99.90;;;;;;5310342;26;20045;-79
2024/04/13 08:09:21;;;;;;;141.55;134.70;;;20.80;99.90;;;;;;5312133;27;20025;-71
2024/04/13 08:11:47;;;;;;;80.10;76.15;;;21.00;99.90;;;;;;5311721;26;20045;-71
2024/04/13 08:14:14;;;;;;;82.80;78.80;;;21.40;99.90;;;;;;5312068;27;20022;-71
2024/04/13 08:16:41;;;;;;;1999.90;999.90;;;21.80;99.90;;;;;;5311163;26;20045;-70
2024/04/13 08:19:07;;;;;;;1999.90;999.90;;;21.40;99.90;;;;;;5312207;26;20025;-71
2024/04/13 08:21:34;;;;;;;1999.90;999.90;;;21.50;99.90;;;;;;5312099;26;20030;-72
2024/04/13 08:24:01;;;;;;;1999.90;999.90;;;21.50;99.90;;;;;;5312149;26;20030;-70
2024/04/13 08:26:27;;;;;;;1999.90;999.90;;;21.80;99.90;;;;;;5311718;26;20027;-72
2024/04/13 08:28:53;;;;;;;1999.90;999.90;;;22.00;99.90;;;;;;5311866;26;20034;-71
2024/04/13 08:31:19;;;;;;;1999.90;999.90;;;21.80;99.90;;;;;;5311008;26;20038;-72
2024/04/13 08:33:45;;;;;;;1999.90;999.90;;;21.80;99.90;;;;;;5312552;26;20021;-72
2024/04/13 08:36:11;;;;;;;1999.90;999.90;;;22.00;99.90;;;;;;5324783;26;20040;-72
2024/04/13 08:38:38;;;;;;;1999.90;999.90;;;22.40;99.90;;;;;;5346496;26;20045;-72
2024/04/13 08:41:14;;;;;;;1999.90;999.90;;;22.80;99.90;;;;;;5332247;26;20030;-72
2024/04/13 08:43:40;;;;;;;1999.90;999.90;;;22.80;99.90;;;;;;5309736;27;20022;-72
2024/04/13 08:46:09;;;;;;;1999.90;999.90;;;23.20;99.90;;;;;;5316303;26;20045;-72
2024/04/13 08:48:36;;;;;;;1999.90;999.90;;;23.50;99.90;;;;;;5343896;26;20028;-72
2024/04/13 08:51:03;;;;;;;1999.90;999.90;;;23.50;99.90;;;;;;5343802;26;20037;-72
2024/04/13 08:53:30;;;;;;;1999.90;999.90;;;23.30;99.90;;;;;;5315857;26;20009;-72
2024/04/13 08:55:57;;;;;;;1999.90;999.90;;;23.40;99.90;;;;;;5314828;26;20028;-72
2024/04/13 08:58:23;;;;;;;1999.90;999.90;;;23.60;99.90;;;;;;5343800;26;20021;-72
2024/04/13 09:00:51;;;;;;;1999.90;999.90;;;23.90;99.90;;;;;;5342315;26;20053;-72
2024/04/13 09:03:19;;;;;;;1999.90;999.90;;;24.00;99.90;;;;;;5346272;26;20034;-72
2024/04/13 09:05:45;;;;;;;1999.90;999.90;;;24.30;99.90;;;;;;5307302;26;20029;-72
2024/04/13 09:08:11;;;;;;;1999.90;999.90;;;24.50;99.90;;;;;;5311851;26;20029;-72
2024/04/13 09:10:38;;;;;;;1999.90;999.90;;;24.80;99.90;;;;;;5309033;26;20042;-78
2024/04/13 09:13:04;;;;;;;1999.90;999.90;;;25.00;99.90;;;;;;5309551;27;20019;-78
2024/04/13 09:15:30;;;;;;;1999.90;999.90;;;25.00;99.90;;;;;;5310170;26;20038;-78
2024/04/13 09:17:57;;;;;;;1999.90;999.90;;;25.10;99.90;;;;;;5281911;27;20021;-79
2024/04/13 09:20:24;;;;;;;1999.90;999.90;;;25.20;99.90;;;;;;5314818;26;20025;-79
2024/04/13 09:22:50;;;;;;;1999.90;999.90;;;25.40;99.90;;;;;;5345416;26;20497;-79
2024/04/13 09:25:23;;;;;;;1999.90;999.90;;;25.50;99.90;;;;;;5340985;26;20029;-79
2024/04/13 09:28:02;;;;;;;1999.90;999.90;;;25.40;99.90;;;;;;5311336;27;20462;-78
2024/04/13 09:30:28;;;;;;;1999.90;999.90;;;25.60;99.90;;;;;;5307790;26;20475;-79
2024/04/13 09:33:01;;;;;;;1999.90;999.90;;;25.60;99.90;;;;;;5311952;26;20046;-78
2024/04/13 09:35:28;;;;;;;1999.90;999.90;;;25.80;99.90;;;;;;5310453;26;20029;-80
2024/04/13 09:38:00;;;;;;;1999.90;999.90;;;25.90;99.90;;;;;;5314749;26;20038;-79
2024/04/13 09:40:28;;;;;;;1999.90;999.90;;;25.90;99.90;;;;;;5315884;26;20459;-80
2024/04/13 09:42:54;;;;;;;1999.90;999.90;;;25.90;99.90;;;;;;5347839;26;20148;-79
2024/04/13 09:45:21;;;;;;;1999.90;999.90;;;25.90;99.90;;;;;;5347203;26;20025;-79
2024/04/13 09:47:47;;;;;;;1999.90;999.90;;;25.80;99.90;;;;;;5348091;26;20036;-79
2024/04/13 09:50:13;;;;;;;1999.90;999.90;;;25.90;99.90;;;;;;5347847;26;20368;-79
2024/04/13 09:52:39;;;;;;;1999.90;999.90;;;25.90;99.90;;;;;;5347835;26;20033;-79
2024/04/13 09:55:06;;;;;;;1999.90;999.90;;;25.90;99.90;;;;;;5347895;26;20025;-79
2024/04/13 09:57:32;;;;;;;1999.90;999.90;;;25.90;99.90;;;;;;5314219;26;20037;-79
2024/04/13 09:59:59;;;;;;;1999.90;999.90;;;26.00;99.90;;;;;;5314765;26;20034;-79
2024/04/13 10:02:25;;;;;;;1999.90;999.90;;;26.00;99.90;;;;;;5311177;26;20034;-79
2024/04/13 10:04:51;;;;;;;1999.90;999.90;;;26.20;99.90;;;;;;5313332;26;20018;-79
2024/04/13 10:07:17;;;;;;;1999.90;999.90;;;26.30;99.90;;;;;;5312811;26;20324;-80
2024/04/13 10:09:51;;;;;;;1999.90;999.90;;;26.30;99.90;;;;;;5312214;26;20022;-79
2024/04/13 10:12:26;;;;;;;1999.90;999.90;;;26.40;99.90;;;;;;5283533;27;20035;-79
2024/04/13 10:14:52;;;;;;;1999.90;999.90;;;26.50;99.90;;;;;;5311569;27;20025;-79
2024/04/13 10:17:19;;;;;;;1999.90;999.90;;;26.40;99.90;;;;;;5282630;26;20511;-79
2024/04/13 10:19:45;;;;;;;1999.90;999.90;;;26.40;99.90;;;;;;5283548;27;20369;-79
2024/04/13 10:22:12;;;;;;;1999.90;999.90;;;26.40;99.90;;;;;;5313546;26;20034;-79
2024/04/13 10:24:43;;;;;;;1999.90;999.90;;;26.30;99.90;;;;;;5313041;27;20034;-72
2024/04/13 10:27:10;;;;;;;1999.90;999.90;;;26.20;99.90;;;;;;5313194;26;20499;-72
2024/04/13 10:29:43;;;;;;;1999.90;999.90;;;26.20;99.90;;;;;;5313596;27;20025;-72
2024/04/13 10:32:09;;;;;;;1999.90;999.90;;;26.20;99.90;;;;;;5312924;26;20482;-72
2024/04/13 10:34:35;;;;;;;1999.90;999.90;;;26.30;99.90;;;;;;5313379;27;20038;-72
2024/04/13 10:37:01;;;;;;;1999.90;999.90;;;26.40;99.90;;;;;;5337857;26;20888;-72
2024/04/13 10:39:27;;;;;;;1999.90;999.90;;;26.40;99.90;;;;;;5347889;26;20024;-72
2024/04/13 10:41:54;;;;;;;1999.90;999.90;;;26.40;99.90;;;;;;5322986;26;20029;-72
2024/04/13 10:44:26;;;;;;;1999.90;999.90;;;26.50;99.90;;;;;;5314275;26;20486;-72
2024/04/13 10:46:52;;;;;;;1999.90;999.90;;;26.50;99.90;;;;;;5330354;26;20044;-72
2024/04/13 10:49:18;;;;;;;1999.90;999.90;;;26.50;99.90;;;;;;5347803;26;20029;-72
2024/04/13 10:51:46;;;;;;;1999.90;999.90;;;26.50;99.90;;;;;;5346547;26;20028;-72
2024/04/13 10:54:13;;;;;;;1999.90;999.90;;;26.60;99.90;;;;;;5348073;26;20028;-73
2024/04/13 10:56:39;;;;;;;1999.90;999.90;;;26.60;99.90;;;;;;5323837;26;20093;-72
2024/04/13 10:59:08;;;;;;;1999.90;999.90;;;26.60;99.90;;;;;;5313694;26;20050;-73
2024/04/13 11:01:41;;;;;;;1999.90;999.90;;;26.50;99.90;;;;;;5312630;26;20366;-72
2024/04/13 11:04:10;;;;;;;1999.90;999.90;;;26.60;99.90;;;;;;5311834;26;20374;-72
2024/04/13 11:06:38;;;;;;;1999.90;999.90;;;26.80;99.90;;;;;;5312534;26;20029;-72
2024/04/13 11:09:04;;;;;;;1999.90;999.90;;;26.80;99.90;;;;;;5313654;26;20041;-73
2024/04/13 11:11:30;;;;;;;1999.90;999.90;;;26.90;99.90;;;;;;5311000;26;20037;-73
2024/04/13 11:13:56;;;;;;;1999.90;999.90;;;26.90;99.90;;;;;;5313535;26;20030;-72
2024/04/13 11:16:22;;;;;;;1999.90;999.90;;;26.90;99.90;;;;;;5310591;26;20042;-72
2024/04/13 11:18:48;;;;;;;1999.90;999.90;;;27.00;99.90;;;;;;5313053;27;20510;-72
2024/04/13 11:21:17;;;;;;;1999.90;999.90;;;27.00;99.90;;;;;;5312259;26;20042;-73
2024/04/13 11:23:43;;;;;;;1999.90;999.90;;;27.00;99.90;;;;;;5310981;27;20025;-72
2024/04/13 11:26:09;;;;;;;1999.90;999.90;;;27.00;99.90;;;;;;5312630;26;20387;-79
2024/04/13 11:28:35;;;;;;;1999.90;999.90;;;27.10;99.90;;;;;;5311062;27;20022;-79
2024/04/13 11:31:01;;;;;;;1999.90;999.90;;;27.00;99.90;;;;;;5313108;26;20041;-79
2024/04/13 11:33:28;;;;;;;1999.90;999.90;;;27.10;99.90;;;;;;5310808;27;20557;-78
2024/04/13 11:35:57;;;;;;;1999.90;999.90;;;27.20;99.90;;;;;;5320664;26;20028;-79
2024/04/13 11:38:23;;;;;;;1999.90;999.90;;;27.30;99.90;;;;;;5346211;26;20029;-79
2024/04/13 11:40:52;;;;;;;1999.90;999.90;;;27.30;99.90;;;;;;5337218;26;20037;-78
2024/04/13 11:43:19;;;;;;;1999.90;999.90;;;27.30;99.90;;;;;;5312393;26;20029;-79
2024/04/13 11:45:45;;;;;;;1999.90;999.90;;;27.40;99.90;;;;;;5283650;26;20388;-79
2024/04/13 11:48:11;;;;;;;1999.90;999.90;;;27.30;99.90;;;;;;5347324;26;20028;-79
2024/04/13 11:50:38;;;;;;;1999.90;999.90;;;27.30;99.90;;;;;;5347483;26;20040;-79
2024/04/13 11:53:04;;;;;;;1999.90;999.90;;;27.40;99.90;;;;;;5347028;26;20034;-78
2024/04/13 11:55:31;;;;;;;1999.90;999.90;;;27.50;99.90;;;;;;5338786;26;20033;-79
2024/04/13 11:57:57;;;;;;;1999.90;999.90;;;27.60;99.90;;;;;;5311648;26;20029;-80
2024/04/13 12:00:23;;;;;;;1999.90;999.90;;;27.60;99.90;;;;;;5281470;26;20176;-80
2024/04/13 12:02:50;;;;;;;1999.90;999.90;;;27.60;99.90;;;;;;5312869;26;20371;-79